createdAt,value
2023-04-24T00:01:58.510Z,0.80
2023-04-24T00:04:28.055Z,0.67
2023-04-24T00:06:58.365Z,0.70
2023-04-24T00:09:29.786Z,0.70
2023-04-24T00:11:58.428Z,0.70
2023-04-24T00:14:31.102Z,0.60
2023-04-24T00:17:02.608Z,0.70
2023-04-24T00:19:33.149Z,0.87
2023-04-24T00:22:02.030Z,0.70
2023-04-24T00:24:31.241Z,0.97
2023-04-24T00:27:01.961Z,0.80
2023-04-24T00:29:33.524Z,1.10
2023-04-24T00:32:02.607Z,0.90
2023-04-24T00:34:31.410Z,1.13
2023-04-24T00:37:00.506Z,1.30
2023-04-24T00:39:29.247Z,1.20
2023-04-24T00:41:59.061Z,1.27
2023-04-24T00:44:28.355Z,1.33
2023-04-24T00:47:00.460Z,1.20
2023-04-24T00:49:29.055Z,1.30
2023-04-24T00:52:00.399Z,1.60
2023-04-24T00:54:28.705Z,1.50
2023-04-24T00:56:58.018Z,1.23
2023-04-24T00:59:27.434Z,1.80
2023-04-24T01:01:56.308Z,2.03
2023-04-24T01:04:27.302Z,1.60
2023-04-24T01:06:59.376Z,1.70
2023-04-24T01:09:28.213Z,2.60
2023-04-24T01:11:58.241Z,2.47
2023-04-24T01:14:27.302Z,2.27
2023-04-24T01:16:56.005Z,2.47
2023-04-24T01:19:31.151Z,2.47
2023-04-24T01:22:02.076Z,2.57
2023-04-24T01:24:32.996Z,2.63
2023-04-24T01:27:02.482Z,2.47
2023-04-24T01:29:31.441Z,2.33
2023-04-24T01:32:00.652Z,2.23
2023-04-24T01:34:30.026Z,2.30
2023-04-24T01:37:02.514Z,2.37
2023-04-24T01:39:34.422Z,2.40
2023-04-24T01:42:03.760Z,2.90
2023-04-24T01:44:33.519Z,2.57
2023-04-24T01:47:08.376Z,2.70
2023-04-24T01:49:37.048Z,2.60
2023-04-24T01:52:08.027Z,2.27
2023-04-24T01:54:38.171Z,3.00
2023-04-24T01:57:08.001Z,2.70
2023-04-24T01:59:38.276Z,3.17
2023-04-24T02:02:07.127Z,3.17
2023-04-24T02:04:37.172Z,3.27
2023-04-24T02:07:05.906Z,3.70
2023-04-24T02:09:35.296Z,3.70
2023-04-24T02:12:05.528Z,3.77
2023-04-24T02:14:36.236Z,3.40
2023-04-24T02:17:05.915Z,3.80
2023-04-24T02:19:34.309Z,3.00
2023-04-24T02:22:02.759Z,3.97
2023-04-24T02:24:31.126Z,3.40
2023-04-24T02:26:59.768Z,3.77
2023-04-24T02:29:30.643Z,3.50
2023-04-24T02:31:59.353Z,4.00
2023-04-24T02:34:30.252Z,4.07
2023-04-24T02:37:00.871Z,4.10
2023-04-24T02:39:29.227Z,4.13
2023-04-24T02:41:57.835Z,4.10
2023-04-24T02:44:26.213Z,4.43
2023-04-24T02:46:58.714Z,4.70
2023-04-24T02:49:28.266Z,4.27
2023-04-24T02:51:59.471Z,3.73
2023-04-24T02:54:28.012Z,4.47
2023-04-24T02:56:57.831Z,5.17
2023-04-24T02:59:28.449Z,4.53
2023-04-24T03:01:59.038Z,3.60
2023-04-24T03:04:27.477Z,3.73
2023-04-24T03:06:57.584Z,4.00
2023-04-24T03:09:26.168Z,4.47
2023-04-24T03:11:58.254Z,4.13
2023-04-24T03:14:26.978Z,3.93
2023-04-24T03:16:57.710Z,4.70
2023-04-24T03:19:26.569Z,5.10
2023-04-24T03:22:04.862Z,5.30
2023-04-24T03:24:34.143Z,5.30
2023-04-24T03:27:02.804Z,5.20
2023-04-24T03:29:47.947Z,3.67
2023-04-24T03:32:19.525Z,4.60
2023-04-24T03:34:51.744Z,6.60
2023-04-24T03:37:21.161Z,5.40
2023-04-24T03:39:59.477Z,6.27
2023-04-24T03:42:28.357Z,5.40
2023-04-24T03:44:59.493Z,5.17
2023-04-24T03:47:34.394Z,5.30
2023-04-24T03:50:04.440Z,6.50
2023-04-24T03:52:34.080Z,4.60
2023-04-24T03:55:03.739Z,5.70
2023-04-24T03:57:35.158Z,5.87
2023-04-24T04:00:15.574Z,4.97
2023-04-24T04:02:48.035Z,6.00
2023-04-24T04:05:18.212Z,4.70
2023-04-24T04:07:47.321Z,6.03
2023-04-24T04:10:15.985Z,5.33
2023-04-24T04:12:44.551Z,5.80
2023-04-24T04:15:14.615Z,5.03
2023-04-24T04:17:44.152Z,5.70
2023-04-24T04:20:15.261Z,4.50
2023-04-24T04:22:44.783Z,5.30
2023-04-24T04:25:20.288Z,5.33
2023-04-24T04:27:49.510Z,3.10
2023-04-24T04:30:19.122Z,3.13
2023-04-24T04:32:53.330Z,4.70
2023-04-24T04:35:25.967Z,4.30
2023-04-24T04:37:55.351Z,3.70
2023-04-24T04:40:34.680Z,4.20
2023-04-24T04:43:07.524Z,4.20
2023-04-24T04:45:46.129Z,4.10
2023-04-24T04:48:34.295Z,3.47
2023-04-24T04:51:07.600Z,3.90
2023-04-24T04:53:36.332Z,4.30
2023-04-24T04:56:05.290Z,4.10
2023-04-24T04:58:45.374Z,3.90
2023-04-24T05:01:17.101Z,4.23
2023-04-24T05:03:50.909Z,3.80
2023-04-24T05:06:24.178Z,3.50
2023-04-24T05:08:58.132Z,4.20
2023-04-24T05:11:37.437Z,4.20
2023-04-24T05:14:06.074Z,4.13
2023-04-24T05:16:39.239Z,3.40
2023-04-24T05:19:09.797Z,3.47
2023-04-24T05:21:43.837Z,3.50
2023-04-24T05:24:15.310Z,4.03
2023-04-24T05:26:47.138Z,3.13
2023-04-24T05:29:20.321Z,2.10
2023-04-24T05:31:50.469Z,3.47
2023-04-24T05:34:19.089Z,3.07
2023-04-24T05:36:55.280Z,3.50
2023-04-24T05:39:26.148Z,3.33
2023-04-24T05:41:56.234Z,3.67
2023-04-24T05:44:25.006Z,3.43
2023-04-24T05:46:56.408Z,3.83
2023-04-24T05:49:25.348Z,3.60
2023-04-24T05:51:58.769Z,3.50
2023-04-24T05:54:27.158Z,3.40
2023-04-24T05:56:59.425Z,3.37
2023-04-24T05:59:42.830Z,3.70
2023-04-24T06:02:12.620Z,3.63
2023-04-24T06:04:41.267Z,3.53
2023-04-24T06:07:13.612Z,4.13
2023-04-24T06:09:45.622Z,3.90
2023-04-24T06:12:15.692Z,4.00
2023-04-24T06:14:56.869Z,3.40
2023-04-24T06:17:45.777Z,3.60
2023-04-24T06:20:18.406Z,3.87
2023-04-24T06:22:49.241Z,4.00
2023-04-24T06:25:18.556Z,3.70
2023-04-24T06:27:49.259Z,4.60
2023-04-24T06:30:18.073Z,3.07
2023-04-24T06:32:47.704Z,3.07
2023-04-24T06:35:17.992Z,2.87
2023-04-24T06:37:46.783Z,3.60
2023-04-24T06:40:16.878Z,4.00
2023-04-24T06:42:46.099Z,3.50
2023-04-24T06:45:14.797Z,3.90
2023-04-24T06:47:43.227Z,3.53
2023-04-24T06:50:12.527Z,3.63
2023-04-24T06:52:43.121Z,2.83
2023-04-24T06:55:12.502Z,3.90
2023-04-24T06:57:42.742Z,3.30
2023-04-24T07:00:12.358Z,3.03
2023-04-24T07:02:41.014Z,3.57
2023-04-24T07:05:10.116Z,3.70
2023-04-24T07:07:41.627Z,3.63
2023-04-24T07:10:11.273Z,4.50
2023-04-24T07:12:43.166Z,3.90
2023-04-24T07:15:13.803Z,3.40
2023-04-24T07:17:44.452Z,4.77
2023-04-24T07:20:15.771Z,4.57
2023-04-24T07:22:44.859Z,4.07
2023-04-24T07:25:13.749Z,4.50
2023-04-24T07:27:43.694Z,4.93
2023-04-24T07:30:13.473Z,4.07
2023-04-24T07:32:42.224Z,4.90
2023-04-24T07:35:11.426Z,4.13
2023-04-24T07:37:40.648Z,3.03
2023-04-24T07:40:10.948Z,4.40
2023-04-24T07:42:39.280Z,4.53
2023-04-24T07:45:11.108Z,5.87
2023-04-24T07:47:40.660Z,3.70
2023-04-24T07:50:10.257Z,3.40
2023-04-24T07:52:38.881Z,4.50
2023-04-24T07:55:09.604Z,4.87
2023-04-24T07:57:38.113Z,4.30
2023-04-24T08:00:11.219Z,4.80
2023-04-24T08:02:42.387Z,4.30
2023-04-24T08:05:11.897Z,4.60
2023-04-24T08:07:40.811Z,2.90
2023-04-24T08:10:10.598Z,4.00
2023-04-24T08:12:39.917Z,4.10
2023-04-24T08:15:11.760Z,3.20
2023-04-24T08:17:42.361Z,4.10
2023-04-24T08:20:14.868Z,4.20
2023-04-24T08:22:43.864Z,4.40
2023-04-24T08:25:12.669Z,4.30
2023-04-24T08:27:41.453Z,3.80
2023-04-24T08:30:12.112Z,4.20
2023-04-24T08:32:40.635Z,4.20
2023-04-24T08:35:10.739Z,4.80
2023-04-24T08:37:39.954Z,4.47
2023-04-24T08:40:14.279Z,5.13
2023-04-24T08:42:45.509Z,3.37
2023-04-24T08:45:15.885Z,5.33
2023-04-24T08:47:45.327Z,5.00
2023-04-24T08:50:13.892Z,4.27
2023-04-24T08:52:46.737Z,4.47
2023-04-24T08:55:15.875Z,4.57
2023-04-24T08:57:46.190Z,4.90
2023-04-24T09:00:20.050Z,4.33
2023-04-24T09:02:51.335Z,5.53
2023-04-24T09:05:20.715Z,4.53
2023-04-24T09:07:55.619Z,3.23
2023-04-24T09:10:26.665Z,4.37
2023-04-24T09:12:55.543Z,4.90
2023-04-24T09:15:26.983Z,4.90
2023-04-24T09:17:56.479Z,4.47
2023-04-24T09:20:28.004Z,4.60
2023-04-24T09:22:57.493Z,5.50
2023-04-24T09:25:33.326Z,4.60
2023-04-24T09:28:04.360Z,4.77
2023-04-24T09:30:35.769Z,5.07
2023-04-24T09:33:16.339Z,5.50
2023-04-24T09:35:53.469Z,5.00
2023-04-24T09:38:32.908Z,5.13
2023-04-24T09:41:03.953Z,4.87
2023-04-24T09:43:32.536Z,4.33
2023-04-24T09:46:10.635Z,3.77
2023-04-24T09:48:40.576Z,4.50
2023-04-24T09:51:11.793Z,3.97
2023-04-24T09:53:41.087Z,4.20
2023-04-24T09:56:14.841Z,4.10
2023-04-24T09:58:43.640Z,4.33
2023-04-24T10:01:13.539Z,3.77
2023-04-24T10:03:45.941Z,3.30
2023-04-24T10:06:16.631Z,3.80
2023-04-24T10:08:47.281Z,3.33
2023-04-24T10:11:16.331Z,4.10
2023-04-24T10:13:46.162Z,3.43
2023-04-24T10:16:17.220Z,3.23
2023-04-24T10:18:46.616Z,3.80
2023-04-24T10:21:15.341Z,3.50
2023-04-24T10:23:46.923Z,3.60
2023-04-24T10:26:18.929Z,3.47
2023-04-24T10:28:52.309Z,3.80
2023-04-24T10:31:23.514Z,3.23
2023-04-24T10:33:54.079Z,3.67
2023-04-24T10:36:27.804Z,3.10
2023-04-24T10:38:58.192Z,3.47
2023-04-24T10:41:28.528Z,3.50
2023-04-24T10:44:10.981Z,3.10
2023-04-24T10:46:41.949Z,2.83
2023-04-24T10:49:11.630Z,2.73
2023-04-24T10:52:02.542Z,3.20
2023-04-24T10:54:36.512Z,3.20
2023-04-24T10:57:36.100Z,3.20
2023-04-24T11:00:28.689Z,2.77
2023-04-24T11:03:00.220Z,2.90
2023-04-24T11:05:54.997Z,2.73
2023-04-24T11:08:45.883Z,2.90
2023-04-24T11:11:16.658Z,3.07
2023-04-24T11:14:04.676Z,2.80
2023-04-24T11:16:36.346Z,2.73
2023-04-24T11:19:08.648Z,2.60
2023-04-24T11:21:45.396Z,3.03
2023-04-24T11:24:34.479Z,3.00
2023-04-24T11:27:09.277Z,2.87
2023-04-24T11:29:46.424Z,3.60
2023-04-24T11:32:28.398Z,3.07
2023-04-24T11:34:59.868Z,3.77
2023-04-24T11:37:39.283Z,3.83
2023-04-24T11:40:11.566Z,4.00
2023-04-24T11:42:43.949Z,4.00
2023-04-24T11:45:14.618Z,4.40
2023-04-24T11:47:45.197Z,3.57
2023-04-24T11:50:17.524Z,3.30
2023-04-24T11:52:47.794Z,3.60
2023-04-24T11:55:30.521Z,3.70
2023-04-24T11:58:03.513Z,4.00
2023-04-24T12:00:37.228Z,4.50
2023-04-24T12:03:08.386Z,3.67
2023-04-24T12:05:40.265Z,4.00
2023-04-24T12:08:08.952Z,3.63
2023-04-24T12:10:38.592Z,4.00
2023-04-24T12:13:06.971Z,4.27
2023-04-24T12:15:35.195Z,3.70
2023-04-24T12:18:04.276Z,4.33
2023-04-24T12:20:34.314Z,4.60
2023-04-24T12:23:04.379Z,4.20
2023-04-24T12:25:35.838Z,3.30
2023-04-24T12:28:15.079Z,3.97
2023-04-24T12:30:46.549Z,4.20
2023-04-24T12:33:15.620Z,3.87
2023-04-24T12:35:44.564Z,3.50
2023-04-24T12:38:15.975Z,3.73
2023-04-24T12:40:45.570Z,3.33
2023-04-24T12:43:18.363Z,3.40
2023-04-24T12:45:47.108Z,3.50
2023-04-24T12:48:17.035Z,3.60
2023-04-24T12:50:47.290Z,3.30
2023-04-24T12:53:18.083Z,3.40
2023-04-24T12:55:53.262Z,3.10
2023-04-24T12:58:22.526Z,3.30
2023-04-24T13:00:51.617Z,4.00
2023-04-24T13:03:21.123Z,3.27
2023-04-24T13:05:49.682Z,3.30
2023-04-24T13:08:19.664Z,2.90
2023-04-24T13:10:48.921Z,3.80
2023-04-24T13:13:17.331Z,3.10
2023-04-24T13:15:46.080Z,3.37
2023-04-24T13:18:15.315Z,3.23
2023-04-24T13:20:43.770Z,3.10
2023-04-24T13:23:12.244Z,3.67
2023-04-24T13:25:43.483Z,3.40
2023-04-24T13:28:13.639Z,3.57
2023-04-24T13:30:43.860Z,3.67
2023-04-24T13:33:12.814Z,3.33
2023-04-24T13:35:41.253Z,3.60
2023-04-24T13:38:10.830Z,3.43
2023-04-24T13:40:39.042Z,3.87
2023-04-24T13:43:09.012Z,3.73
2023-04-24T13:45:37.615Z,4.27
2023-04-24T13:48:06.582Z,4.30
2023-04-24T13:50:38.853Z,4.50
2023-04-24T13:53:12.445Z,4.47
2023-04-24T13:55:41.557Z,4.70
2023-04-24T13:58:11.720Z,4.03
2023-04-24T14:00:40.441Z,4.20
2023-04-24T14:03:09.197Z,3.70
2023-04-24T14:05:40.088Z,4.23
2023-04-24T14:08:08.558Z,4.07
2023-04-24T14:10:38.280Z,3.80
2023-04-24T14:13:07.379Z,4.57
2023-04-24T14:15:38.067Z,4.50
2023-04-24T14:18:06.850Z,4.40
2023-04-24T14:20:35.301Z,4.40
2023-04-24T14:23:04.590Z,4.17
2023-04-24T14:25:33.240Z,4.30
2023-04-24T14:28:03.828Z,4.60
2023-04-24T14:30:35.304Z,4.50
2023-04-24T14:33:05.686Z,4.30
2023-04-24T14:35:35.244Z,3.73
2023-04-24T14:38:03.845Z,3.90
2023-04-24T14:43:05.203Z,8.40
2023-04-24T14:45:34.076Z,3.70
2023-04-24T14:48:02.697Z,3.17
2023-04-24T14:50:32.994Z,3.40
2023-04-24T14:53:03.431Z,2.90
2023-04-24T14:55:35.190Z,3.10
2023-04-24T14:58:04.571Z,2.80
2023-04-24T15:00:35.257Z,3.37
2023-04-24T15:03:06.257Z,3.27
2023-04-24T15:05:37.020Z,2.70
2023-04-24T15:08:06.832Z,3.00
2023-04-24T15:10:36.326Z,2.43
2023-04-24T15:13:05.004Z,2.60
2023-04-24T15:15:33.901Z,2.60
2023-04-24T15:18:02.512Z,2.57
2023-04-24T15:20:31.405Z,2.57
2023-04-24T15:23:03.457Z,2.27
2023-04-24T15:25:31.940Z,2.50
2023-04-24T15:28:01.903Z,2.90
2023-04-24T15:30:32.285Z,3.10
2023-04-24T15:33:02.556Z,3.00
2023-04-24T15:35:31.515Z,3.00
2023-04-24T15:38:01.794Z,2.70
2023-04-24T15:40:32.101Z,3.00
2023-04-24T15:43:02.446Z,2.70
2023-04-24T15:45:31.477Z,2.90
2023-04-24T15:48:00.381Z,2.97
2023-04-24T15:50:29.457Z,2.90
2023-04-24T15:52:57.820Z,2.60
2023-04-24T15:55:27.732Z,2.60
2023-04-24T15:57:57.422Z,2.13
2023-04-24T16:00:26.271Z,2.93
2023-04-24T16:02:56.309Z,3.03
2023-04-24T16:05:24.972Z,3.00
2023-04-24T16:07:53.866Z,2.50
2023-04-24T16:10:22.516Z,2.30
2023-04-24T16:12:54.469Z,1.30
2023-04-24T16:15:23.259Z,1.53
2023-04-24T16:17:52.789Z,1.97
2023-04-24T16:20:22.266Z,1.40
2023-04-24T16:22:50.824Z,1.30
2023-04-24T16:25:19.226Z,1.80
2023-04-24T16:27:48.776Z,1.60
2023-04-24T16:30:19.069Z,1.50
2023-04-24T16:32:47.885Z,1.80
2023-04-24T16:35:16.445Z,1.70
2023-04-24T16:37:45.598Z,2.07
2023-04-24T16:40:14.105Z,2.20
2023-04-24T16:42:42.538Z,2.30
2023-04-24T16:45:11.686Z,2.00
2023-04-24T16:47:42.033Z,2.07
2023-04-24T16:50:12.037Z,2.30
2023-04-24T16:52:40.790Z,1.93
2023-04-24T16:55:10.313Z,2.03
2023-04-24T16:57:38.669Z,1.80
2023-04-24T17:00:09.509Z,1.70
2023-04-24T17:02:38.434Z,2.10
2023-04-24T17:05:09.695Z,2.20
2023-04-24T17:07:38.236Z,2.30
2023-04-24T17:10:09.053Z,1.87
2023-04-24T17:12:38.272Z,2.20
2023-04-24T17:15:07.932Z,2.30
2023-04-24T17:17:36.463Z,2.13
2023-04-24T17:20:18.629Z,2.30
2023-04-24T17:22:52.102Z,2.40
2023-04-24T17:25:21.394Z,2.70
2023-04-24T17:27:49.691Z,3.13
2023-04-24T17:30:18.959Z,2.40
2023-04-24T17:32:48.213Z,1.70
2023-04-24T17:35:17.309Z,2.50
2023-04-24T17:37:46.463Z,2.33
2023-04-24T17:40:16.897Z,2.33
2023-04-24T17:42:45.347Z,2.23
2023-04-24T17:45:14.078Z,2.43
2023-04-24T17:47:42.535Z,2.60
2023-04-24T17:50:12.496Z,2.40
2023-04-24T17:52:41.284Z,1.70
2023-04-24T17:55:10.286Z,2.63
2023-04-24T17:57:40.582Z,1.90
2023-04-24T18:00:11.343Z,2.73
2023-04-24T18:02:39.940Z,2.97
2023-04-24T18:05:09.405Z,3.10
2023-04-24T18:07:39.196Z,2.47
2023-04-24T18:10:09.224Z,2.40
2023-04-24T18:12:39.369Z,1.73
2023-04-24T18:15:14.216Z,2.00
2023-04-24T18:17:43.230Z,2.03
2023-04-24T18:20:13.336Z,1.57
2023-04-24T18:22:42.787Z,1.80
2023-04-24T18:25:12.707Z,2.10
2023-04-24T18:27:43.749Z,1.93
2023-04-24T18:30:14.927Z,2.20
2023-04-24T18:32:44.461Z,2.00
2023-04-24T18:35:15.754Z,2.10
2023-04-24T18:37:45.513Z,2.30
2023-04-24T18:40:15.976Z,2.90
2023-04-24T18:42:49.182Z,2.47
2023-04-24T18:45:19.097Z,2.33
2023-04-24T18:47:48.733Z,2.60
2023-04-24T18:50:19.225Z,2.63
2023-04-24T18:52:47.857Z,2.30
2023-04-24T18:55:17.874Z,2.20
2023-04-24T18:57:50.750Z,2.40
2023-04-24T19:00:19.943Z,2.47
2023-04-24T19:02:52.691Z,2.00
2023-04-24T19:05:21.632Z,2.57
2023-04-24T19:07:53.264Z,2.40
2023-04-24T19:10:23.301Z,2.70
2023-04-24T19:12:56.955Z,3.00
2023-04-24T19:15:25.908Z,3.80
2023-04-24T19:17:54.473Z,3.20
2023-04-24T19:20:23.262Z,2.30
2023-04-24T19:22:52.950Z,2.50
2023-04-24T19:25:22.061Z,2.50
2023-04-24T19:27:52.110Z,2.87
2023-04-24T19:30:21.760Z,3.77
2023-04-24T19:32:50.858Z,3.60
2023-04-24T19:35:19.906Z,3.27
2023-04-24T19:37:48.360Z,3.50
2023-04-24T19:40:17.692Z,3.77
2023-04-24T19:42:46.302Z,3.53
2023-04-24T19:45:16.460Z,4.20
2023-04-24T19:47:44.842Z,3.30
2023-04-24T19:50:15.058Z,4.20
2023-04-24T19:52:44.064Z,4.40
2023-04-24T19:55:12.431Z,4.17
2023-04-24T19:57:41.503Z,4.50
2023-04-24T20:00:11.577Z,4.67
2023-04-24T20:02:41.878Z,4.60
2023-04-24T20:05:12.190Z,5.10
2023-04-24T20:07:41.064Z,4.33
2023-04-24T20:10:11.817Z,5.07
2023-04-24T20:12:40.453Z,3.50
2023-04-24T20:15:10.820Z,5.27
2023-04-24T20:17:41.041Z,4.73
2023-04-24T20:20:11.191Z,5.50
2023-04-24T20:22:42.187Z,4.70
2023-04-24T20:25:13.269Z,3.50
2023-04-24T20:27:42.182Z,6.30
2023-04-24T20:30:13.296Z,5.00
2023-04-24T20:32:44.143Z,5.60
2023-04-24T20:35:14.348Z,5.73
2023-04-24T20:37:43.167Z,5.40
2023-04-24T20:40:14.497Z,5.87
2023-04-24T20:42:46.435Z,4.37
2023-04-24T20:45:17.879Z,4.63
2023-04-24T20:47:50.000Z,4.20
2023-04-24T20:50:20.808Z,6.50
2023-04-24T20:52:50.875Z,6.37
2023-04-24T20:55:21.086Z,5.70
2023-04-24T20:57:49.783Z,4.60
2023-04-24T21:00:19.027Z,6.10
2023-04-24T21:02:49.919Z,7.47
2023-04-24T21:05:18.533Z,5.97
2023-04-24T21:07:50.127Z,6.37
2023-04-24T21:10:21.241Z,5.87
2023-04-24T21:12:49.582Z,6.63
2023-04-24T21:15:18.951Z,7.47
2023-04-24T21:17:49.721Z,6.60
2023-04-24T21:20:18.243Z,7.80
2023-04-24T21:22:47.018Z,7.30
2023-04-24T21:25:16.074Z,7.20
2023-04-24T21:27:45.196Z,6.67
2023-04-24T21:30:14.710Z,7.10
2023-04-24T21:32:43.624Z,7.70
2023-04-24T21:35:14.666Z,7.80
2023-04-24T21:37:43.780Z,6.60
2023-04-24T21:40:12.736Z,7.10
2023-04-24T21:42:41.716Z,6.13
2023-04-24T21:45:13.481Z,6.50
2023-04-24T21:47:42.186Z,7.90
2023-04-24T21:50:11.765Z,7.03
2023-04-24T21:52:43.376Z,7.17
2023-04-24T21:55:12.061Z,6.87
2023-04-24T21:57:41.713Z,7.33
2023-04-24T22:00:11.430Z,7.40
2023-04-24T22:02:43.107Z,7.53
2023-04-24T22:05:15.817Z,7.53
2023-04-24T22:07:49.108Z,7.30
2023-04-24T22:10:20.932Z,6.33
2023-04-24T22:12:49.156Z,7.30
2023-04-24T22:15:18.530Z,7.07
2023-04-24T22:17:49.659Z,8.27
2023-04-24T22:20:18.027Z,7.87
2023-04-24T22:22:48.954Z,7.60
2023-04-24T22:25:18.888Z,7.77
2023-04-24T22:27:47.366Z,7.83
2023-04-24T22:30:15.890Z,7.90
2023-04-24T22:32:44.554Z,8.00
2023-04-24T22:35:13.033Z,8.20
2023-04-24T22:37:41.601Z,7.30
2023-04-24T22:40:12.710Z,6.97
2023-04-24T22:42:42.007Z,7.17
2023-04-24T22:45:13.623Z,7.33
2023-04-24T22:47:42.474Z,7.57
2023-04-24T22:50:11.857Z,7.60
2023-04-24T22:52:42.145Z,7.40
2023-04-24T22:55:12.413Z,7.13
2023-04-24T22:57:41.379Z,5.57
2023-04-24T23:00:12.807Z,7.10
2023-04-24T23:02:44.364Z,7.40
2023-04-24T23:05:12.957Z,6.90
2023-04-24T23:07:41.444Z,7.50
2023-04-24T23:10:12.383Z,7.27
2023-04-24T23:12:41.823Z,7.37
2023-04-24T23:15:12.279Z,7.73
2023-04-24T23:17:42.023Z,6.77
2023-04-24T23:20:13.734Z,7.23
2023-04-24T23:22:42.411Z,8.30
2023-04-24T23:25:12.958Z,7.00
2023-04-24T23:27:41.951Z,7.37
2023-04-24T23:30:11.159Z,8.40
2023-04-24T23:32:41.590Z,8.20
2023-04-24T23:35:12.016Z,7.93
2023-04-24T23:37:41.203Z,9.10
2023-04-24T23:40:14.184Z,7.50
2023-04-24T23:42:49.555Z,7.43
2023-04-24T23:45:22.860Z,7.33
2023-04-24T23:47:52.788Z,7.47
2023-04-24T23:50:21.415Z,7.80
2023-04-24T23:52:56.060Z,9.30
2023-04-24T23:55:25.899Z,7.77
2023-04-24T23:57:54.194Z,7.90
